sensor_id;sensor_type;location;lat;lon;timestamp;P1;durP1;ratioP1;P2;durP2;ratioP2
80409;SDS011;69746;45.596;10.154;2023-07-13T00:02:16;2.28;;;0.85;;
80409;SDS011;69746;45.596;10.154;2023-07-13T00:04:42;1.63;;;0.80;;
80409;SDS011;69746;45.596;10.154;2023-07-13T00:07:08;2.95;;;0.88;;
80409;SDS011;69746;45.596;10.154;2023-07-13T00:09:34;2.58;;;0.70;;
80409;SDS011;69746;45.596;10.154;2023-07-13T00:12:01;2.13;;;0.80;;
80409;SDS011;69746;45.596;10.154;2023-07-13T00:14:31;2.75;;;0.90;;
80409;SDS011;69746;45.596;10.154;2023-07-13T00:16:58;3.00;;;0.98;;
80409;SDS011;69746;45.596;10.154;2023-07-13T00:19:26;4.10;;;0.70;;
80409;SDS011;69746;45.596;10.154;2023-07-13T00:21:52;3.70;;;0.77;;
80409;SDS011;69746;45.596;10.154;2023-07-13T00:24:21;3.15;;;0.70;;
80409;SDS011;69746;45.596;10.154;2023-07-13T00:26:49;2.40;;;0.80;;
80409;SDS011;69746;45.596;10.154;2023-07-13T00:29:15;2.58;;;0.80;;
80409;SDS011;69746;45.596;10.154;2023-07-13T00:31:41;2.60;;;0.90;;
80409;SDS011;69746;45.596;10.154;2023-07-13T00:34:09;1.40;;;0.60;;
80409;SDS011;69746;45.596;10.154;2023-07-13T00:36:38;1.95;;;0.68;;
80409;SDS011;69746;45.596;10.154;2023-07-13T00:39:04;2.45;;;0.73;;
80409;SDS011;69746;45.596;10.154;2023-07-13T00:41:30;2.53;;;0.82;;
80409;SDS011;69746;45.596;10.154;2023-07-13T00:43:56;2.70;;;0.80;;
80409;SDS011;69746;45.596;10.154;2023-07-13T00:46:29;3.30;;;0.80;;
80409;SDS011;69746;45.596;10.154;2023-07-13T00:48:59;2.92;;;1.02;;
80409;SDS011;69746;45.596;10.154;2023-07-13T00:51:41;2.50;;;0.80;;
80409;SDS011;69746;45.596;10.154;2023-07-13T00:54:24;3.10;;;0.80;;
80409;SDS011;69746;45.596;10.154;2023-07-13T00:57:02;2.55;;;1.00;;
80409;SDS011;69746;45.596;10.154;2023-07-13T00:59:31;2.95;;;0.80;;
80409;SDS011;69746;45.596;10.154;2023-07-13T01:02:00;3.38;;;0.80;;
80409;SDS011;69746;45.596;10.154;2023-07-13T01:04:26;2.22;;;1.00;;
80409;SDS011;69746;45.596;10.154;2023-07-13T01:06:54;2.17;;;0.70;;
80409;SDS011;69746;45.596;10.154;2023-07-13T01:09:22;2.67;;;0.75;;
80409;SDS011;69746;45.596;10.154;2023-07-13T01:11:47;1.77;;;0.65;;
80409;SDS011;69746;45.596;10.154;2023-07-13T01:14:14;2.25;;;0.57;;
80409;SDS011;69746;45.596;10.154;2023-07-13T01:16:45;2.40;;;1.00;;
80409;SDS011;69746;45.596;10.154;2023-07-13T01:19:21;1.77;;;0.70;;
80409;SDS011;69746;45.596;10.154;2023-07-13T01:21:51;2.10;;;0.80;;
80409;SDS011;69746;45.596;10.154;2023-07-13T01:26:43;1.25;;;0.60;;
80409;SDS011;69746;45.596;10.154;2023-07-13T01:29:12;3.17;;;0.70;;
80409;SDS011;69746;45.596;10.154;2023-07-13T01:31:38;1.83;;;0.70;;
80409;SDS011;69746;45.596;10.154;2023-07-13T01:34:05;2.15;;;0.80;;
80409;SDS011;69746;45.596;10.154;2023-07-13T01:36:31;1.65;;;0.50;;
80409;SDS011;69746;45.596;10.154;2023-07-13T01:38:57;2.47;;;0.93;;
80409;SDS011;69746;45.596;10.154;2023-07-13T01:41:23;1.95;;;0.70;;
80409;SDS011;69746;45.596;10.154;2023-07-13T01:43:54;2.08;;;0.70;;
80409;SDS011;69746;45.596;10.154;2023-07-13T01:46:20;2.20;;;0.85;;
80409;SDS011;69746;45.596;10.154;2023-07-13T01:48:45;1.90;;;0.80;;
80409;SDS011;69746;45.596;10.154;2023-07-13T01:51:11;2.42;;;0.85;;
80409;SDS011;69746;45.596;10.154;2023-07-13T01:53:38;1.88;;;0.80;;
80409;SDS011;69746;45.596;10.154;2023-07-13T01:56:04;2.65;;;0.70;;
80409;SDS011;69746;45.596;10.154;2023-07-13T01:58:33;1.70;;;0.70;;
80409;SDS011;69746;45.596;10.154;2023-07-13T02:00:59;2.20;;;0.70;;
80409;SDS011;69746;45.596;10.154;2023-07-13T02:03:25;1.98;;;0.63;;
80409;SDS011;69746;45.596;10.154;2023-07-13T02:05:51;1.52;;;0.63;;
80409;SDS011;69746;45.596;10.154;2023-07-13T02:08:17;1.77;;;0.70;;
80409;SDS011;69746;45.596;10.154;2023-07-13T02:10:43;3.72;;;0.77;;
80409;SDS011;69746;45.596;10.154;2023-07-13T02:13:09;1.77;;;0.70;;
80409;SDS011;69746;45.596;10.154;2023-07-13T02:15:38;2.25;;;0.70;;
80409;SDS011;69746;45.596;10.154;2023-07-13T02:18:06;2.42;;;0.68;;
80409;SDS011;69746;45.596;10.154;2023-07-13T02:20:32;2.20;;;0.70;;
80409;SDS011;69746;45.596;10.154;2023-07-13T02:22:58;2.25;;;0.80;;
80409;SDS011;69746;45.596;10.154;2023-07-13T02:25:27;1.90;;;0.70;;
80409;SDS011;69746;45.596;10.154;2023-07-13T02:27:53;2.08;;;0.90;;
80409;SDS011;69746;45.596;10.154;2023-07-13T02:30:19;1.75;;;0.82;;
80409;SDS011;69746;45.596;10.154;2023-07-13T02:32:45;2.35;;;0.82;;
80409;SDS011;69746;45.596;10.154;2023-07-13T02:35:14;1.20;;;0.60;;
80409;SDS011;69746;45.596;10.154;2023-07-13T02:37:40;3.22;;;0.80;;
80409;SDS011;69746;45.596;10.154;2023-07-13T02:40:06;2.25;;;0.70;;
80409;SDS011;69746;45.596;10.154;2023-07-13T02:42:34;2.40;;;0.70;;
80409;SDS011;69746;45.596;10.154;2023-07-13T02:45:00;1.33;;;0.65;;
80409;SDS011;69746;45.596;10.154;2023-07-13T02:47:31;3.42;;;1.02;;
80409;SDS011;69746;45.596;10.154;2023-07-13T02:49:57;1.73;;;0.77;;
80409;SDS011;69746;45.596;10.154;2023-07-13T02:52:23;1.88;;;0.80;;
80409;SDS011;69746;45.596;10.154;2023-07-13T02:54:49;2.00;;;0.70;;
80409;SDS011;69746;45.596;10.154;2023-07-13T02:57:15;1.83;;;0.90;;
80409;SDS011;69746;45.596;10.154;2023-07-13T02:59:41;2.15;;;0.60;;
80409;SDS011;69746;45.596;10.154;2023-07-13T03:02:07;1.92;;;0.70;;
80409;SDS011;69746;45.596;10.154;2023-07-13T03:04:35;1.95;;;0.75;;
80409;SDS011;69746;45.596;10.154;2023-07-13T03:07:01;2.67;;;0.70;;
80409;SDS011;69746;45.596;10.154;2023-07-13T03:09:30;2.50;;;1.00;;
80409;SDS011;69746;45.596;10.154;2023-07-13T03:11:58;2.42;;;0.77;;
80409;SDS011;69746;45.596;10.154;2023-07-13T03:14:24;1.95;;;0.70;;
80409;SDS011;69746;45.596;10.154;2023-07-13T03:16:50;1.83;;;0.98;;
80409;SDS011;69746;45.596;10.154;2023-07-13T03:19:17;3.22;;;0.70;;
80409;SDS011;69746;45.596;10.154;2023-07-13T03:21:43;1.85;;;0.65;;
80409;SDS011;69746;45.596;10.154;2023-07-13T03:24:08;2.25;;;0.73;;
80409;SDS011;69746;45.596;10.154;2023-07-13T03:26:34;1.83;;;0.73;;
80409;SDS011;69746;45.596;10.154;2023-07-13T03:29:00;2.17;;;0.70;;
80409;SDS011;69746;45.596;10.154;2023-07-13T03:31:27;1.70;;;0.60;;
80409;SDS011;69746;45.596;10.154;2023-07-13T03:33:56;2.03;;;0.80;;
80409;SDS011;69746;45.596;10.154;2023-07-13T03:36:25;1.90;;;0.70;;
80409;SDS011;69746;45.596;10.154;2023-07-13T03:38:54;2.47;;;1.00;;
80409;SDS011;69746;45.596;10.154;2023-07-13T03:41:22;1.42;;;0.80;;
80409;SDS011;69746;45.596;10.154;2023-07-13T03:43:49;1.40;;;0.70;;
80409;SDS011;69746;45.596;10.154;2023-07-13T03:46:18;3.33;;;0.70;;
80409;SDS011;69746;45.596;10.154;2023-07-13T03:48:45;1.63;;;0.65;;
80409;SDS011;69746;45.596;10.154;2023-07-13T03:51:13;3.00;;;0.85;;
80409;SDS011;69746;45.596;10.154;2023-07-13T03:53:40;1.90;;;0.73;;
80409;SDS011;69746;45.596;10.154;2023-07-13T03:56:08;2.60;;;0.98;;
80409;SDS011;69746;45.596;10.154;2023-07-13T03:58:36;3.13;;;0.70;;
80409;SDS011;69746;45.596;10.154;2023-07-13T04:01:05;2.35;;;0.73;;
80409;SDS011;69746;45.596;10.154;2023-07-13T04:03:32;4.10;;;1.00;;
80409;SDS011;69746;45.596;10.154;2023-07-13T04:06:00;4.88;;;0.80;;
80409;SDS011;69746;45.596;10.154;2023-07-13T04:08:27;4.70;;;1.08;;
80409;SDS011;69746;45.596;10.154;2023-07-13T04:10:57;5.18;;;0.88;;
80409;SDS011;69746;45.596;10.154;2023-07-13T04:13:24;3.58;;;0.90;;
80409;SDS011;69746;45.596;10.154;2023-07-13T04:15:54;5.97;;;0.73;;
80409;SDS011;69746;45.596;10.154;2023-07-13T04:18:20;2.20;;;0.70;;
80409;SDS011;69746;45.596;10.154;2023-07-13T04:20:47;4.75;;;0.80;;
80409;SDS011;69746;45.596;10.154;2023-07-13T04:23:14;4.47;;;0.80;;
80409;SDS011;69746;45.596;10.154;2023-07-13T04:25:47;3.28;;;0.70;;
80409;SDS011;69746;45.596;10.154;2023-07-13T04:28:18;5.35;;;0.75;;
80409;SDS011;69746;45.596;10.154;2023-07-13T04:30:45;2.78;;;0.60;;
80409;SDS011;69746;45.596;10.154;2023-07-13T04:33:11;4.30;;;0.80;;
80409;SDS011;69746;45.596;10.154;2023-07-13T04:35:37;10.07;;;2.63;;
80409;SDS011;69746;45.596;10.154;2023-07-13T04:38:03;9.18;;;2.30;;
80409;SDS011;69746;45.596;10.154;2023-07-13T04:40:29;7.07;;;1.73;;
80409;SDS011;69746;45.596;10.154;2023-07-13T04:42:55;5.53;;;1.25;;
80409;SDS011;69746;45.596;10.154;2023-07-13T04:45:22;4.32;;;1.23;;
80409;SDS011;69746;45.596;10.154;2023-07-13T04:47:50;3.72;;;0.90;;
80409;SDS011;69746;45.596;10.154;2023-07-13T04:50:16;5.68;;;0.88;;
80409;SDS011;69746;45.596;10.154;2023-07-13T04:52:46;4.70;;;0.85;;
80409;SDS011;69746;45.596;10.154;2023-07-13T04:55:13;3.05;;;0.90;;
80409;SDS011;69746;45.596;10.154;2023-07-13T04:57:41;3.30;;;0.77;;
80409;SDS011;69746;45.596;10.154;2023-07-13T05:00:07;2.58;;;0.80;;
80409;SDS011;69746;45.596;10.154;2023-07-13T05:02:34;3.55;;;0.80;;
80409;SDS011;69746;45.596;10.154;2023-07-13T05:05:03;2.20;;;0.60;;
80409;SDS011;69746;45.596;10.154;2023-07-13T05:07:29;4.78;;;0.70;;
80409;SDS011;69746;45.596;10.154;2023-07-13T05:09:58;2.75;;;0.75;;
80409;SDS011;69746;45.596;10.154;2023-07-13T05:12:25;3.22;;;0.80;;
80409;SDS011;69746;45.596;10.154;2023-07-13T05:14:51;2.65;;;0.90;;
80409;SDS011;69746;45.596;10.154;2023-07-13T05:17:17;2.40;;;0.88;;
80409;SDS011;69746;45.596;10.154;2023-07-13T05:19:43;3.70;;;0.70;;
80409;SDS011;69746;45.596;10.154;2023-07-13T05:22:09;4.93;;;0.98;;
80409;SDS011;69746;45.596;10.154;2023-07-13T05:24:35;3.38;;;0.73;;
80409;SDS011;69746;45.596;10.154;2023-07-13T05:27:01;5.45;;;0.95;;
80409;SDS011;69746;45.596;10.154;2023-07-13T05:29:27;3.70;;;0.75;;
80409;SDS011;69746;45.596;10.154;2023-07-13T05:31:52;3.78;;;0.90;;
80409;SDS011;69746;45.596;10.154;2023-07-13T05:34:18;4.63;;;0.95;;
80409;SDS011;69746;45.596;10.154;2023-07-13T05:36:44;3.25;;;0.90;;
80409;SDS011;69746;45.596;10.154;2023-07-13T05:39:10;6.47;;;1.20;;
80409;SDS011;69746;45.596;10.154;2023-07-13T05:41:37;3.83;;;1.00;;
80409;SDS011;69746;45.596;10.154;2023-07-13T05:44:02;3.75;;;1.10;;
80409;SDS011;69746;45.596;10.154;2023-07-13T05:46:28;2.65;;;1.05;;
80409;SDS011;69746;45.596;10.154;2023-07-13T05:48:54;5.88;;;1.20;;
80409;SDS011;69746;45.596;10.154;2023-07-13T05:51:20;4.53;;;1.55;;
80409;SDS011;69746;45.596;10.154;2023-07-13T05:53:46;6.75;;;2.03;;
80409;SDS011;69746;45.596;10.154;2023-07-13T05:56:15;4.15;;;1.20;;
80409;SDS011;69746;45.596;10.154;2023-07-13T05:58:41;5.07;;;1.30;;
80409;SDS011;69746;45.596;10.154;2023-07-13T06:01:09;3.40;;;1.20;;
80409;SDS011;69746;45.596;10.154;2023-07-13T06:03:37;4.53;;;1.20;;
80409;SDS011;69746;45.596;10.154;2023-07-13T06:06:07;4.40;;;1.13;;
80409;SDS011;69746;45.596;10.154;2023-07-13T06:08:34;3.95;;;1.10;;
80409;SDS011;69746;45.596;10.154;2023-07-13T06:11:07;4.07;;;1.08;;
80409;SDS011;69746;45.596;10.154;2023-07-13T06:13:37;5.72;;;1.30;;
80409;SDS011;69746;45.596;10.154;2023-07-13T06:16:06;3.75;;;1.30;;
80409;SDS011;69746;45.596;10.154;2023-07-13T06:18:34;4.75;;;1.30;;
80409;SDS011;69746;45.596;10.154;2023-07-13T06:21:12;4.32;;;1.30;;
80409;SDS011;69746;45.596;10.154;2023-07-13T06:23:39;4.60;;;1.20;;
80409;SDS011;69746;45.596;10.154;2023-07-13T06:26:06;4.30;;;0.93;;
80409;SDS011;69746;45.596;10.154;2023-07-13T06:28:33;5.57;;;1.05;;
80409;SDS011;69746;45.596;10.154;2023-07-13T06:30:59;5.50;;;1.13;;
80409;SDS011;69746;45.596;10.154;2023-07-13T06:33:26;3.88;;;1.02;;
80409;SDS011;69746;45.596;10.154;2023-07-13T06:35:53;2.63;;;0.98;;
80409;SDS011;69746;45.596;10.154;2023-07-13T06:38:20;2.67;;;1.17;;
80409;SDS011;69746;45.596;10.154;2023-07-13T06:40:46;4.60;;;1.10;;
80409;SDS011;69746;45.596;10.154;2023-07-13T06:43:12;2.55;;;0.98;;
80409;SDS011;69746;45.596;10.154;2023-07-13T06:45:43;5.22;;;1.17;;
80409;SDS011;69746;45.596;10.154;2023-07-13T06:48:18;4.93;;;1.05;;
80409;SDS011;69746;45.596;10.154;2023-07-13T06:50:45;2.55;;;0.93;;
80409;SDS011;69746;45.596;10.154;2023-07-13T06:53:12;5.78;;;1.20;;
80409;SDS011;69746;45.596;10.154;2023-07-13T06:55:38;5.57;;;1.02;;
80409;SDS011;69746;45.596;10.154;2023-07-13T06:58:04;3.17;;;1.15;;
80409;SDS011;69746;45.596;10.154;2023-07-13T07:00:31;3.83;;;1.20;;
80409;SDS011;69746;45.596;10.154;2023-07-13T07:02:57;2.88;;;1.10;;
80409;SDS011;69746;45.596;10.154;2023-07-13T07:05:23;3.67;;;1.20;;
80409;SDS011;69746;45.596;10.154;2023-07-13T07:07:50;3.70;;;1.17;;
80409;SDS011;69746;45.596;10.154;2023-07-13T07:10:17;3.60;;;1.27;;
80409;SDS011;69746;45.596;10.154;2023-07-13T07:12:44;2.60;;;0.90;;
80409;SDS011;69746;45.596;10.154;2023-07-13T07:15:12;4.65;;;1.10;;
80409;SDS011;69746;45.596;10.154;2023-07-13T07:17:40;3.33;;;1.10;;
80409;SDS011;69746;45.596;10.154;2023-07-13T07:20:06;4.68;;;1.10;;
80409;SDS011;69746;45.596;10.154;2023-07-13T07:22:32;2.38;;;0.90;;
80409;SDS011;69746;45.596;10.154;2023-07-13T07:24:58;1.95;;;1.00;;
80409;SDS011;69746;45.596;10.154;2023-07-13T07:27:24;2.47;;;1.00;;
80409;SDS011;69746;45.596;10.154;2023-07-13T07:29:50;4.05;;;1.20;;
80409;SDS011;69746;45.596;10.154;2023-07-13T07:32:15;3.03;;;1.10;;
80409;SDS011;69746;45.596;10.154;2023-07-13T07:34:42;4.88;;;1.02;;
80409;SDS011;69746;45.596;10.154;2023-07-13T07:37:10;3.55;;;1.00;;
80409;SDS011;69746;45.596;10.154;2023-07-13T07:39:37;2.75;;;0.93;;
80409;SDS011;69746;45.596;10.154;2023-07-13T07:42:03;3.15;;;1.05;;
80409;SDS011;69746;45.596;10.154;2023-07-13T07:44:32;2.45;;;0.82;;
80409;SDS011;69746;45.596;10.154;2023-07-13T07:46:59;3.45;;;0.93;;
80409;SDS011;69746;45.596;10.154;2023-07-13T07:49:25;2.22;;;0.82;;
80409;SDS011;69746;45.596;10.154;2023-07-13T07:51:51;2.00;;;0.85;;
80409;SDS011;69746;45.596;10.154;2023-07-13T07:54:17;1.95;;;1.05;;
80409;SDS011;69746;45.596;10.154;2023-07-13T07:56:46;2.55;;;0.90;;
80409;SDS011;69746;45.596;10.154;2023-07-13T07:59:12;2.15;;;1.00;;
80409;SDS011;69746;45.596;10.154;2023-07-13T08:01:40;1.35;;;0.77;;
80409;SDS011;69746;45.596;10.154;2023-07-13T08:06:32;2.00;;;0.90;;
80409;SDS011;69746;45.596;10.154;2023-07-13T08:08:59;3.38;;;1.10;;
80409;SDS011;69746;45.596;10.154;2023-07-13T08:11:25;2.85;;;1.20;;
80409;SDS011;69746;45.596;10.154;2023-07-13T08:13:51;3.03;;;0.80;;
80409;SDS011;69746;45.596;10.154;2023-07-13T08:16:17;2.85;;;1.13;;
80409;SDS011;69746;45.596;10.154;2023-07-13T08:18:43;2.10;;;0.90;;
80409;SDS011;69746;45.596;10.154;2023-07-13T08:21:09;2.45;;;0.82;;
80409;SDS011;69746;45.596;10.154;2023-07-13T08:23:35;1.90;;;0.80;;
80409;SDS011;69746;45.596;10.154;2023-07-13T08:26:01;3.75;;;0.93;;
80409;SDS011;69746;45.596;10.154;2023-07-13T08:28:31;1.83;;;0.80;;
80409;SDS011;69746;45.596;10.154;2023-07-13T08:31:02;3.58;;;1.08;;
80409;SDS011;69746;45.596;10.154;2023-07-13T08:33:30;3.53;;;0.82;;
80409;SDS011;69746;45.596;10.154;2023-07-13T08:35:56;3.63;;;0.90;;
80409;SDS011;69746;45.596;10.154;2023-07-13T08:38:22;3.08;;;1.13;;
80409;SDS011;69746;45.596;10.154;2023-07-13T08:40:55;2.80;;;0.95;;
80409;SDS011;69746;45.596;10.154;2023-07-13T08:43:25;2.03;;;0.93;;
80409;SDS011;69746;45.596;10.154;2023-07-13T08:48:52;3.17;;;1.00;;
80409;SDS011;69746;45.596;10.154;2023-07-13T08:51:42;2.97;;;0.80;;
80409;SDS011;69746;45.596;10.154;2023-07-13T08:54:21;3.08;;;1.02;;
80409;SDS011;69746;45.596;10.154;2023-07-13T08:56:48;2.83;;;0.93;;
80409;SDS011;69746;45.596;10.154;2023-07-13T08:59:25;2.15;;;0.90;;
80409;SDS011;69746;45.596;10.154;2023-07-13T09:04:27;3.10;;;0.95;;
80409;SDS011;69746;45.596;10.154;2023-07-13T09:07:05;3.03;;;1.10;;
80409;SDS011;69746;45.596;10.154;2023-07-13T09:09:49;2.20;;;0.90;;
80409;SDS011;69746;45.596;10.154;2023-07-13T09:15:07;2.15;;;1.00;;
80409;SDS011;69746;45.596;10.154;2023-07-13T09:17:49;2.22;;;0.90;;
80409;SDS011;69746;45.596;10.154;2023-07-13T09:20:23;3.25;;;0.90;;
80409;SDS011;69746;45.596;10.154;2023-07-13T09:22:52;3.20;;;1.15;;
80409;SDS011;69746;45.596;10.154;2023-07-13T09:25:32;4.07;;;1.00;;
80409;SDS011;69746;45.596;10.154;2023-07-13T09:28:02;3.00;;;1.10;;
80409;SDS011;69746;45.596;10.154;2023-07-13T09:30:46;4.03;;;1.00;;
80409;SDS011;69746;45.596;10.154;2023-07-13T09:33:20;1.90;;;0.90;;
80409;SDS011;69746;45.596;10.154;2023-07-13T09:35:47;2.58;;;1.00;;
80409;SDS011;69746;45.596;10.154;2023-07-13T09:38:14;1.92;;;0.98;;
80409;SDS011;69746;45.596;10.154;2023-07-13T09:40:54;2.25;;;0.90;;
80409;SDS011;69746;45.596;10.154;2023-07-13T09:43:29;2.05;;;1.00;;
80409;SDS011;69746;45.596;10.154;2023-07-13T09:45:56;2.42;;;0.90;;
80409;SDS011;69746;45.596;10.154;2023-07-13T09:48:22;3.22;;;0.98;;
80409;SDS011;69746;45.596;10.154;2023-07-13T09:53:20;2.67;;;1.15;;
80409;SDS011;69746;45.596;10.154;2023-07-13T09:55:46;2.35;;;0.98;;
80409;SDS011;69746;45.596;10.154;2023-07-13T09:58:17;2.38;;;0.93;;
80409;SDS011;69746;45.596;10.154;2023-07-13T10:00:57;2.10;;;0.85;;
80409;SDS011;69746;45.596;10.154;2023-07-13T10:03:26;2.38;;;0.93;;
80409;SDS011;69746;45.596;10.154;2023-07-13T10:08:44;2.10;;;1.00;;
80409;SDS011;69746;45.596;10.154;2023-07-13T10:11:19;2.55;;;0.80;;
80409;SDS011;69746;45.596;10.154;2023-07-13T10:13:54;2.80;;;1.20;;
80409;SDS011;69746;45.596;10.154;2023-07-13T10:16:24;2.25;;;1.08;;
80409;SDS011;69746;45.596;10.154;2023-07-13T10:19:00;1.90;;;0.90;;
80409;SDS011;69746;45.596;10.154;2023-07-13T10:21:32;2.72;;;0.80;;
80409;SDS011;69746;45.596;10.154;2023-07-13T10:24:04;2.17;;;1.15;;
80409;SDS011;69746;45.596;10.154;2023-07-13T10:26:37;2.10;;;1.00;;
80409;SDS011;69746;45.596;10.154;2023-07-13T10:29:11;1.73;;;0.95;;
80409;SDS011;69746;45.596;10.154;2023-07-13T10:31:44;2.17;;;0.93;;
80409;SDS011;69746;45.596;10.154;2023-07-13T10:34:11;2.03;;;1.05;;
80409;SDS011;69746;45.596;10.154;2023-07-13T10:36:40;2.10;;;0.90;;
80409;SDS011;69746;45.596;10.154;2023-07-13T10:39:10;1.92;;;0.80;;
80409;SDS011;69746;45.596;10.154;2023-07-13T10:41:46;3.70;;;1.30;;
80409;SDS011;69746;45.596;10.154;2023-07-13T10:44:25;2.22;;;1.00;;
80409;SDS011;69746;45.596;10.154;2023-07-13T10:46:55;1.75;;;0.80;;
80409;SDS011;69746;45.596;10.154;2023-07-13T10:49:33;3.08;;;1.15;;
80409;SDS011;69746;45.596;10.154;2023-07-13T10:55:04;2.20;;;1.02;;
80409;SDS011;69746;45.596;10.154;2023-07-13T10:57:31;2.05;;;1.00;;
80409;SDS011;69746;45.596;10.154;2023-07-13T11:00:15;2.63;;;0.90;;
80409;SDS011;69746;45.596;10.154;2023-07-13T11:02:43;2.38;;;1.13;;
80409;SDS011;69746;45.596;10.154;2023-07-13T11:05:26;3.08;;;0.90;;
80409;SDS011;69746;45.596;10.154;2023-07-13T11:07:56;2.33;;;1.00;;
80409;SDS011;69746;45.596;10.154;2023-07-13T11:10:52;2.25;;;1.10;;
80409;SDS011;69746;45.596;10.154;2023-07-13T11:16:09;2.58;;;1.15;;
80409;SDS011;69746;45.596;10.154;2023-07-13T11:22:09;2.47;;;1.10;;
80409;SDS011;69746;45.596;10.154;2023-07-13T11:30:07;2.55;;;1.20;;
80409;SDS011;69746;45.596;10.154;2023-07-13T11:32:44;3.50;;;1.02;;
80409;SDS011;69746;45.596;10.154;2023-07-13T11:35:13;2.63;;;1.30;;
80409;SDS011;69746;45.596;10.154;2023-07-13T11:37:51;2.80;;;1.10;;
80409;SDS011;69746;45.596;10.154;2023-07-13T11:40:18;1.55;;;0.98;;
80409;SDS011;69746;45.596;10.154;2023-07-13T11:42:48;2.28;;;1.20;;
80409;SDS011;69746;45.596;10.154;2023-07-13T11:45:20;1.85;;;0.93;;
80409;SDS011;69746;45.596;10.154;2023-07-13T11:47:48;4.20;;;1.02;;
80409;SDS011;69746;45.596;10.154;2023-07-13T11:50:20;2.22;;;1.10;;
80409;SDS011;69746;45.596;10.154;2023-07-13T11:52:48;2.25;;;1.20;;
80409;SDS011;69746;45.596;10.154;2023-07-13T11:55:17;2.15;;;0.90;;
80409;SDS011;69746;45.596;10.154;2023-07-13T11:57:45;2.38;;;1.15;;
80409;SDS011;69746;45.596;10.154;2023-07-13T12:00:21;2.47;;;1.23;;
80409;SDS011;69746;45.596;10.154;2023-07-13T12:02:51;1.73;;;0.95;;
80409;SDS011;69746;45.596;10.154;2023-07-13T12:05:20;2.20;;;1.08;;
80409;SDS011;69746;45.596;10.154;2023-07-13T12:07:46;3.03;;;1.10;;
80409;SDS011;69746;45.596;10.154;2023-07-13T12:10:23;2.97;;;1.00;;
80409;SDS011;69746;45.596;10.154;2023-07-13T12:12:55;2.22;;;1.17;;
80409;SDS011;69746;45.596;10.154;2023-07-13T12:15:23;2.03;;;0.93;;
80409;SDS011;69746;45.596;10.154;2023-07-13T12:20:26;2.08;;;1.00;;
80409;SDS011;69746;45.596;10.154;2023-07-13T12:22:55;4.00;;;1.30;;
80409;SDS011;69746;45.596;10.154;2023-07-13T12:25:22;2.95;;;1.13;;
80409;SDS011;69746;45.596;10.154;2023-07-13T12:30:27;2.72;;;1.10;;
80409;SDS011;69746;45.596;10.154;2023-07-13T12:32:59;3.28;;;1.20;;
80409;SDS011;69746;45.596;10.154;2023-07-13T12:35:38;4.15;;;0.90;;
80409;SDS011;69746;45.596;10.154;2023-07-13T12:38:11;2.33;;;1.20;;
80409;SDS011;69746;45.596;10.154;2023-07-13T12:40:38;2.38;;;1.17;;
80409;SDS011;69746;45.596;10.154;2023-07-13T12:45:36;2.38;;;1.25;;
80409;SDS011;69746;45.596;10.154;2023-07-13T12:48:04;2.83;;;1.20;;
80409;SDS011;69746;45.596;10.154;2023-07-13T12:50:41;2.15;;;1.17;;
80409;SDS011;69746;45.596;10.154;2023-07-13T12:53:14;2.63;;;1.10;;
80409;SDS011;69746;45.596;10.154;2023-07-13T12:55:46;4.88;;;1.15;;
80409;SDS011;69746;45.596;10.154;2023-07-13T12:58:21;3.85;;;1.30;;
80409;SDS011;69746;45.596;10.154;2023-07-13T13:00:59;2.33;;;1.20;;
80409;SDS011;69746;45.596;10.154;2023-07-13T13:06:06;3.30;;;1.10;;
80409;SDS011;69746;45.596;10.154;2023-07-13T13:08:46;1.73;;;1.10;;
80409;SDS011;69746;45.596;10.154;2023-07-13T13:11:19;2.53;;;1.10;;
80409;SDS011;69746;45.596;10.154;2023-07-13T13:13:48;2.47;;;1.20;;
80409;SDS011;69746;45.596;10.154;2023-07-13T13:18:45;3.08;;;1.38;;
80409;SDS011;69746;45.596;10.154;2023-07-13T13:21:11;2.10;;;1.05;;
80409;SDS011;69746;45.596;10.154;2023-07-13T13:23:37;2.58;;;1.17;;
80409;SDS011;69746;45.596;10.154;2023-07-13T13:26:05;2.47;;;1.10;;
80409;SDS011;69746;45.596;10.154;2023-07-13T13:28:36;3.10;;;1.38;;
80409;SDS011;69746;45.596;10.154;2023-07-13T13:31:02;1.83;;;1.02;;
80409;SDS011;69746;45.596;10.154;2023-07-13T13:33:27;2.53;;;1.30;;
80409;SDS011;69746;45.596;10.154;2023-07-13T13:35:53;2.67;;;1.30;;
80409;SDS011;69746;45.596;10.154;2023-07-13T13:38:23;2.33;;;1.10;;
80409;SDS011;69746;45.596;10.154;2023-07-13T13:40:54;3.00;;;1.20;;
80409;SDS011;69746;45.596;10.154;2023-07-13T13:43:24;2.22;;;1.10;;
80409;SDS011;69746;45.596;10.154;2023-07-13T13:45:52;2.72;;;1.20;;
80409;SDS011;69746;45.596;10.154;2023-07-13T13:48:21;2.88;;;1.40;;
80409;SDS011;69746;45.596;10.154;2023-07-13T13:50:59;2.60;;;1.23;;
80409;SDS011;69746;45.596;10.154;2023-07-13T13:53:27;2.28;;;1.20;;
80409;SDS011;69746;45.596;10.154;2023-07-13T13:55:53;2.97;;;1.13;;
80409;SDS011;69746;45.596;10.154;2023-07-13T13:58:19;1.77;;;0.93;;
80409;SDS011;69746;45.596;10.154;2023-07-13T14:00:45;3.22;;;1.27;;
80409;SDS011;69746;45.596;10.154;2023-07-13T14:03:18;2.85;;;1.35;;
80409;SDS011;69746;45.596;10.154;2023-07-13T14:05:46;2.50;;;1.27;;
80409;SDS011;69746;45.596;10.154;2023-07-13T14:08:13;2.85;;;1.52;;
80409;SDS011;69746;45.596;10.154;2023-07-13T14:10:46;2.65;;;1.15;;
80409;SDS011;69746;45.596;10.154;2023-07-13T14:13:21;2.47;;;1.20;;
80409;SDS011;69746;45.596;10.154;2023-07-13T14:15:52;3.15;;;1.30;;
80409;SDS011;69746;45.596;10.154;2023-07-13T14:18:18;2.35;;;1.20;;
80409;SDS011;69746;45.596;10.154;2023-07-13T14:20:44;2.63;;;1.30;;
80409;SDS011;69746;45.596;10.154;2023-07-13T14:23:13;2.58;;;1.30;;
80409;SDS011;69746;45.596;10.154;2023-07-13T14:25:41;2.35;;;1.50;;
80409;SDS011;69746;45.596;10.154;2023-07-13T14:28:15;2.90;;;1.40;;
80409;SDS011;69746;45.596;10.154;2023-07-13T14:30:48;3.28;;;1.55;;
80409;SDS011;69746;45.596;10.154;2023-07-13T14:33:14;2.85;;;1.58;;
80409;SDS011;69746;45.596;10.154;2023-07-13T14:35:41;2.88;;;1.55;;
80409;SDS011;69746;45.596;10.154;2023-07-13T14:38:15;2.72;;;1.35;;
80409;SDS011;69746;45.596;10.154;2023-07-13T14:40:43;4.97;;;1.17;;
80409;SDS011;69746;45.596;10.154;2023-07-13T14:43:12;3.05;;;1.58;;
80409;SDS011;69746;45.596;10.154;2023-07-13T14:45:41;3.42;;;1.60;;
80409;SDS011;69746;45.596;10.154;2023-07-13T14:48:15;2.72;;;1.52;;
80409;SDS011;69746;45.596;10.154;2023-07-13T14:50:44;2.67;;;1.50;;
80409;SDS011;69746;45.596;10.154;2023-07-13T14:55:37;2.70;;;1.30;;
80409;SDS011;69746;45.596;10.154;2023-07-13T14:58:03;2.78;;;1.38;;
80409;SDS011;69746;45.596;10.154;2023-07-13T15:00:28;2.35;;;1.30;;
80409;SDS011;69746;45.596;10.154;2023-07-13T15:02:55;3.08;;;1.27;;
80409;SDS011;69746;45.596;10.154;2023-07-13T15:05:26;2.10;;;1.30;;
80409;SDS011;69746;45.596;10.154;2023-07-13T15:07:56;1.92;;;1.08;;
80409;SDS011;69746;45.596;10.154;2023-07-13T15:10:32;2.45;;;1.20;;
80409;SDS011;69746;45.596;10.154;2023-07-13T15:13:00;2.42;;;1.33;;
80409;SDS011;69746;45.596;10.154;2023-07-13T15:15:40;2.75;;;1.20;;
80409;SDS011;69746;45.596;10.154;2023-07-13T15:18:09;2.22;;;1.15;;
80409;SDS011;69746;45.596;10.154;2023-07-13T15:20:40;2.28;;;1.30;;
80409;SDS011;69746;45.596;10.154;2023-07-13T15:23:08;2.15;;;1.20;;
80409;SDS011;69746;45.596;10.154;2023-07-13T15:25:36;2.88;;;1.20;;
80409;SDS011;69746;45.596;10.154;2023-07-13T15:28:02;2.78;;;1.17;;
80409;SDS011;69746;45.596;10.154;2023-07-13T15:30:28;2.92;;;1.30;;
80409;SDS011;69746;45.596;10.154;2023-07-13T15:32:57;3.97;;;1.48;;